sensor_id;sensor_type;location;lat;lon;timestamp;temperature;humidity
65396;HTU21D;52004;45.136;39.010;2023-06-14T00:02:07;19.45;72.06
65396;HTU21D;52004;45.136;39.010;2023-06-14T00:04:34;19.43;72.09
65396;HTU21D;52004;45.136;39.010;2023-06-14T00:07:00;19.43;72.11
65396;HTU21D;52004;45.136;39.010;2023-06-14T00:09:26;19.43;72.11
65396;HTU21D;52004;45.136;39.010;2023-06-14T00:11:52;19.42;72.13
65396;HTU21D;52004;45.136;39.010;2023-06-14T00:14:18;19.41;72.14
65396;HTU21D;52004;45.136;39.010;2023-06-14T00:16:44;19.41;72.13
65396;HTU21D;52004;45.136;39.010;2023-06-14T00:19:11;19.40;72.16
65396;HTU21D;52004;45.136;39.010;2023-06-14T00:21:37;19.40;72.18
65396;HTU21D;52004;45.136;39.010;2023-06-14T00:24:03;19.40;72.20
65396;HTU21D;52004;45.136;39.010;2023-06-14T00:26:29;19.39;72.22
65396;HTU21D;52004;45.136;39.010;2023-06-14T00:28:56;19.39;72.23
65396;HTU21D;52004;45.136;39.010;2023-06-14T00:31:25;19.38;72.29
65396;HTU21D;52004;45.136;39.010;2023-06-14T00:33:53;19.40;72.29
65396;HTU21D;52004;45.136;39.010;2023-06-14T00:36:19;19.41;72.27
65396;HTU21D;52004;45.136;39.010;2023-06-14T00:38:45;19.41;72.28
65396;HTU21D;52004;45.136;39.010;2023-06-14T00:41:11;19.42;72.29
65396;HTU21D;52004;45.136;39.010;2023-06-14T00:43:37;19.42;72.26
65396;HTU21D;52004;45.136;39.010;2023-06-14T00:46:03;19.42;72.27
65396;HTU21D;52004;45.136;39.010;2023-06-14T00:48:29;19.42;72.25
65396;HTU21D;52004;45.136;39.010;2023-06-14T00:50:56;19.41;72.25
65396;HTU21D;52004;45.136;39.010;2023-06-14T00:53:23;19.42;72.27
65396;HTU21D;52004;45.136;39.010;2023-06-14T00:55:50;19.42;72.29
65396;HTU21D;52004;45.136;39.010;2023-06-14T00:58:16;19.42;72.25
65396;HTU21D;52004;45.136;39.010;2023-06-14T01:00:42;19.43;72.30
65396;HTU21D;52004;45.136;39.010;2023-06-14T01:03:10;19.44;72.29
65396;HTU21D;52004;45.136;39.010;2023-06-14T01:05:38;19.44;72.30
65396;HTU21D;52004;45.136;39.010;2023-06-14T01:10:35;19.43;72.29
65396;HTU21D;52004;45.136;39.010;2023-06-14T01:15:33;19.41;72.34
65396;HTU21D;52004;45.136;39.010;2023-06-14T01:17:59;19.38;72.37
65396;HTU21D;52004;45.136;39.010;2023-06-14T01:20:46;19.39;72.39
65396;HTU21D;52004;45.136;39.010;2023-06-14T01:23:19;19.36;72.41
65396;HTU21D;52004;45.136;39.010;2023-06-14T01:25:45;19.33;72.48
65396;HTU21D;52004;45.136;39.010;2023-06-14T01:28:12;19.32;72.48
65396;HTU21D;52004;45.136;39.010;2023-06-14T01:30:41;19.30;72.46
65396;HTU21D;52004;45.136;39.010;2023-06-14T01:33:14;19.30;72.52
65396;HTU21D;52004;45.136;39.010;2023-06-14T01:35:44;19.28;72.60
65396;HTU21D;52004;45.136;39.010;2023-06-14T01:38:11;19.28;72.62
65396;HTU21D;52004;45.136;39.010;2023-06-14T01:40:38;19.27;72.67
65396;HTU21D;52004;45.136;39.010;2023-06-14T01:43:04;19.27;72.72
65396;HTU21D;52004;45.136;39.010;2023-06-14T01:45:31;19.27;72.77
65396;HTU21D;52004;45.136;39.010;2023-06-14T01:47:57;19.28;72.78
65396;HTU21D;52004;45.136;39.010;2023-06-14T01:50:23;19.30;72.77
65396;HTU21D;52004;45.136;39.010;2023-06-14T01:52:49;19.35;72.76
65396;HTU21D;52004;45.136;39.010;2023-06-14T01:55:15;19.37;72.77
65396;HTU21D;52004;45.136;39.010;2023-06-14T01:57:43;19.37;72.80
65396;HTU21D;52004;45.136;39.010;2023-06-14T02:00:09;19.41;72.87
65396;HTU21D;52004;45.136;39.010;2023-06-14T02:02:41;19.44;72.87
65396;HTU21D;52004;45.136;39.010;2023-06-14T02:05:06;19.48;72.87
65396;HTU21D;52004;45.136;39.010;2023-06-14T02:07:33;19.52;72.83
65396;HTU21D;52004;45.136;39.010;2023-06-14T02:09:59;19.55;72.83
65396;HTU21D;52004;45.136;39.010;2023-06-14T02:12:25;19.59;72.80
65396;HTU21D;52004;45.136;39.010;2023-06-14T02:14:51;19.60;72.83
65396;HTU21D;52004;45.136;39.010;2023-06-14T02:17:17;19.61;72.85
65396;HTU21D;52004;45.136;39.010;2023-06-14T02:19:42;19.63;72.87
65396;HTU21D;52004;45.136;39.010;2023-06-14T02:22:09;19.66;72.90
65396;HTU21D;52004;45.136;39.010;2023-06-14T02:24:34;19.67;72.93
65396;HTU21D;52004;45.136;39.010;2023-06-14T02:27:01;19.68;72.90
65396;HTU21D;52004;45.136;39.010;2023-06-14T02:29:27;19.69;72.99
65396;HTU21D;52004;45.136;39.010;2023-06-14T02:31:53;19.69;73.01
65396;HTU21D;52004;45.136;39.010;2023-06-14T02:34:20;19.70;73.01
65396;HTU21D;52004;45.136;39.010;2023-06-14T02:36:47;19.71;73.01
65396;HTU21D;52004;45.136;39.010;2023-06-14T02:39:13;19.74;73.04
65396;HTU21D;52004;45.136;39.010;2023-06-14T02:41:39;19.75;73.05
65396;HTU21D;52004;45.136;39.010;2023-06-14T02:44:06;19.76;73.04
65396;HTU21D;52004;45.136;39.010;2023-06-14T02:46:32;19.81;73.08
65396;HTU21D;52004;45.136;39.010;2023-06-14T02:48:58;19.83;73.11
65396;HTU21D;52004;45.136;39.010;2023-06-14T02:51:24;19.87;73.12
65396;HTU21D;52004;45.136;39.010;2023-06-14T02:53:50;19.91;73.13
65396;HTU21D;52004;45.136;39.010;2023-06-14T02:56:16;19.94;73.16
65396;HTU21D;52004;45.136;39.010;2023-06-14T02:58:43;19.98;73.15
65396;HTU21D;52004;45.136;39.010;2023-06-14T03:01:09;20.01;73.15
65396;HTU21D;52004;45.136;39.010;2023-06-14T03:03:39;20.06;73.17
65396;HTU21D;52004;45.136;39.010;2023-06-14T03:06:05;20.11;73.19
65396;HTU21D;52004;45.136;39.010;2023-06-14T03:08:33;20.16;73.19
65396;HTU21D;52004;45.136;39.010;2023-06-14T03:11:08;20.22;73.19
65396;HTU21D;52004;45.136;39.010;2023-06-14T03:13:35;20.25;73.20
65396;HTU21D;52004;45.136;39.010;2023-06-14T03:16:03;20.30;73.22
65396;HTU21D;52004;45.136;39.010;2023-06-14T03:18:32;20.33;73.24
65396;HTU21D;52004;45.136;39.010;2023-06-14T03:21:02;20.37;73.25
65396;HTU21D;52004;45.136;39.010;2023-06-14T03:23:29;20.40;73.24
65396;HTU21D;52004;45.136;39.010;2023-06-14T03:25:56;20.37;73.17
65396;HTU21D;52004;45.136;39.010;2023-06-14T03:28:22;20.34;73.19
65396;HTU21D;52004;45.136;39.010;2023-06-14T03:30:48;20.32;73.22
65396;HTU21D;52004;45.136;39.010;2023-06-14T03:33:14;20.31;73.25
65396;HTU21D;52004;45.136;39.010;2023-06-14T03:35:41;20.31;73.28
65396;HTU21D;52004;45.136;39.010;2023-06-14T03:38:08;20.29;73.28
65396;HTU21D;52004;45.136;39.010;2023-06-14T03:40:35;20.29;73.32
65396;HTU21D;52004;45.136;39.010;2023-06-14T03:43:03;20.29;73.35
65396;HTU21D;52004;45.136;39.010;2023-06-14T03:45:29;20.29;73.36
65396;HTU21D;52004;45.136;39.010;2023-06-14T03:47:56;20.30;73.34
65396;HTU21D;52004;45.136;39.010;2023-06-14T03:50:23;20.28;73.34
65396;HTU21D;52004;45.136;39.010;2023-06-14T03:52:50;20.29;73.38
65396;HTU21D;52004;45.136;39.010;2023-06-14T03:55:17;20.30;73.38
65396;HTU21D;52004;45.136;39.010;2023-06-14T03:57:44;20.32;73.41
65396;HTU21D;52004;45.136;39.010;2023-06-14T04:00:13;20.36;73.41
65396;HTU21D;52004;45.136;39.010;2023-06-14T04:02:40;20.41;73.41
65396;HTU21D;52004;45.136;39.010;2023-06-14T04:05:08;20.44;73.41
65396;HTU21D;52004;45.136;39.010;2023-06-14T04:07:37;20.49;73.37
65396;HTU21D;52004;45.136;39.010;2023-06-14T04:10:08;20.51;73.36
65396;HTU21D;52004;45.136;39.010;2023-06-14T04:12:34;20.55;73.36
65396;HTU21D;52004;45.136;39.010;2023-06-14T04:15:00;20.57;73.35
65396;HTU21D;52004;45.136;39.010;2023-06-14T04:17:29;20.58;73.32
65396;HTU21D;52004;45.136;39.010;2023-06-14T04:19:55;20.59;73.35
65396;HTU21D;52004;45.136;39.010;2023-06-14T04:22:21;20.59;73.36
65396;HTU21D;52004;45.136;39.010;2023-06-14T04:24:47;20.60;73.37
65396;HTU21D;52004;45.136;39.010;2023-06-14T04:27:13;20.62;73.41
65396;HTU21D;52004;45.136;39.010;2023-06-14T04:29:40;20.63;73.44
65396;HTU21D;52004;45.136;39.010;2023-06-14T04:32:11;20.65;73.40
65396;HTU21D;52004;45.136;39.010;2023-06-14T04:34:39;20.70;73.46
65396;HTU21D;52004;45.136;39.010;2023-06-14T04:37:06;20.74;73.40
65396;HTU21D;52004;45.136;39.010;2023-06-14T04:39:38;20.76;73.38
65396;HTU21D;52004;45.136;39.010;2023-06-14T04:42:05;20.76;73.33
65396;HTU21D;52004;45.136;39.010;2023-06-14T04:44:33;20.76;73.38
65396;HTU21D;52004;45.136;39.010;2023-06-14T04:47:02;20.79;73.42
65396;HTU21D;52004;45.136;39.010;2023-06-14T04:49:28;20.81;73.44
65396;HTU21D;52004;45.136;39.010;2023-06-14T04:51:58;20.81;73.41
65396;HTU21D;52004;45.136;39.010;2023-06-14T04:54:27;20.85;73.42
65396;HTU21D;52004;45.136;39.010;2023-06-14T04:56:54;20.86;73.44
65396;HTU21D;52004;45.136;39.010;2023-06-14T04:59:24;20.92;73.49
65396;HTU21D;52004;45.136;39.010;2023-06-14T05:01:50;20.98;73.47
65396;HTU21D;52004;45.136;39.010;2023-06-14T05:04:17;21.05;73.44
65396;HTU21D;52004;45.136;39.010;2023-06-14T05:06:44;21.09;73.39
65396;HTU21D;52004;45.136;39.010;2023-06-14T05:09:11;0.00;73.38
65396;HTU21D;52004;45.136;39.010;2023-06-14T05:11:37;21.15;73.31
65396;HTU21D;52004;45.136;39.010;2023-06-14T05:14:03;21.16;73.30
65396;HTU21D;52004;45.136;39.010;2023-06-14T05:16:29;21.17;73.32
65396;HTU21D;52004;45.136;39.010;2023-06-14T05:18:55;21.21;73.31
65396;HTU21D;52004;45.136;39.010;2023-06-14T05:21:22;21.23;73.31
65396;HTU21D;52004;45.136;39.010;2023-06-14T05:26:29;21.42;73.50
65396;HTU21D;52004;45.136;39.010;2023-06-14T05:28:55;21.53;73.61
65396;HTU21D;52004;45.136;39.010;2023-06-14T05:31:26;21.69;73.69
65396;HTU21D;52004;45.136;39.010;2023-06-14T05:33:52;21.82;73.64
65396;HTU21D;52004;45.136;39.010;2023-06-14T05:36:19;21.96;73.67
65396;HTU21D;52004;45.136;39.010;2023-06-14T05:38:45;22.11;73.63
65396;HTU21D;52004;45.136;39.010;2023-06-14T05:41:11;22.23;73.62
65396;HTU21D;52004;45.136;39.010;2023-06-14T05:43:37;22.37;73.64
65396;HTU21D;52004;45.136;39.010;2023-06-14T05:46:03;22.51;73.63
65396;HTU21D;52004;45.136;39.010;2023-06-14T05:48:29;22.64;73.64
65396;HTU21D;52004;45.136;39.010;2023-06-14T05:50:56;22.78;73.65
65396;HTU21D;52004;45.136;39.010;2023-06-14T05:53:22;22.92;73.57
65396;HTU21D;52004;45.136;39.010;2023-06-14T05:55:49;23.03;73.59
65396;HTU21D;52004;45.136;39.010;2023-06-14T05:58:15;23.16;73.46
65396;HTU21D;52004;45.136;39.010;2023-06-14T06:00:42;23.27;73.32
65396;HTU21D;52004;45.136;39.010;2023-06-14T06:03:07;23.32;73.12
65396;HTU21D;52004;45.136;39.010;2023-06-14T06:05:34;23.35;72.99
65396;HTU21D;52004;45.136;39.010;2023-06-14T06:08:00;23.34;72.87
65396;HTU21D;52004;45.136;39.010;2023-06-14T06:10:26;23.31;72.77
65396;HTU21D;52004;45.136;39.010;2023-06-14T06:12:52;23.27;72.73
65396;HTU21D;52004;45.136;39.010;2023-06-14T06:15:20;23.26;72.68
65396;HTU21D;52004;45.136;39.010;2023-06-14T06:17:46;23.22;72.59
65396;HTU21D;52004;45.136;39.010;2023-06-14T06:20:12;0.00;72.64
65396;HTU21D;52004;45.136;39.010;2023-06-14T06:22:38;23.18;72.70
65396;HTU21D;52004;45.136;39.010;2023-06-14T06:25:04;0.00;72.74
65396;HTU21D;52004;45.136;39.010;2023-06-14T06:27:32;23.26;72.81
65396;HTU21D;52004;45.136;39.010;2023-06-14T06:29:58;23.31;72.83
65396;HTU21D;52004;45.136;39.010;2023-06-14T06:32:24;23.36;72.67
65396;HTU21D;52004;45.136;39.010;2023-06-14T06:34:50;23.39;72.74
65396;HTU21D;52004;45.136;39.010;2023-06-14T06:37:17;23.46;72.80
65396;HTU21D;52004;45.136;39.010;2023-06-14T06:39:43;0.00;72.85
65396;HTU21D;52004;45.136;39.010;2023-06-14T06:42:09;23.62;72.70
65396;HTU21D;52004;45.136;39.010;2023-06-14T06:44:36;23.68;72.64
65396;HTU21D;52004;45.136;39.010;2023-06-14T06:47:02;0.00;72.60
65396;HTU21D;52004;45.136;39.010;2023-06-14T06:49:28;23.79;72.58
65396;HTU21D;52004;45.136;39.010;2023-06-14T06:52:01;23.81;72.54
65396;HTU21D;52004;45.136;39.010;2023-06-14T06:54:30;23.90;72.61
65396;HTU21D;52004;45.136;39.010;2023-06-14T06:56:56;23.97;72.59
65396;HTU21D;52004;45.136;39.010;2023-06-14T06:59:22;24.04;72.56
65396;HTU21D;52004;45.136;39.010;2023-06-14T07:01:48;24.12;72.50
65396;HTU21D;52004;45.136;39.010;2023-06-14T07:04:14;24.19;72.47
65396;HTU21D;52004;45.136;39.010;2023-06-14T07:06:41;24.27;72.50
65396;HTU21D;52004;45.136;39.010;2023-06-14T07:12:14;24.54;72.54
65396;HTU21D;52004;45.136;39.010;2023-06-14T07:14:40;24.65;72.40
65396;HTU21D;52004;45.136;39.010;2023-06-14T07:17:05;24.74;72.40
65396;HTU21D;52004;45.136;39.010;2023-06-14T07:19:32;24.88;72.42
65396;HTU21D;52004;45.136;39.010;2023-06-14T07:21:58;24.99;72.30
65396;HTU21D;52004;45.136;39.010;2023-06-14T07:24:24;25.14;72.34
65396;HTU21D;52004;45.136;39.010;2023-06-14T07:26:50;25.29;72.22
65396;HTU21D;52004;45.136;39.010;2023-06-14T07:29:16;25.39;72.07
65396;HTU21D;52004;45.136;39.010;2023-06-14T07:31:42;25.49;71.99
65396;HTU21D;52004;45.136;39.010;2023-06-14T07:34:08;25.59;71.90
65396;HTU21D;52004;45.136;39.010;2023-06-14T07:36:34;25.67;71.90
65396;HTU21D;52004;45.136;39.010;2023-06-14T07:39:02;25.75;71.68
65396;HTU21D;52004;45.136;39.010;2023-06-14T07:41:29;25.78;71.55
65396;HTU21D;52004;45.136;39.010;2023-06-14T07:43:55;25.80;71.55
65396;HTU21D;52004;45.136;39.010;2023-06-14T07:46:21;25.86;71.61
65396;HTU21D;52004;45.136;39.010;2023-06-14T07:48:48;25.92;71.48
65396;HTU21D;52004;45.136;39.010;2023-06-14T07:51:14;25.96;71.49
65396;HTU21D;52004;45.136;39.010;2023-06-14T07:53:40;26.04;71.51
65396;HTU21D;52004;45.136;39.010;2023-06-14T07:56:07;26.12;71.23
65396;HTU21D;52004;45.136;39.010;2023-06-14T07:58:33;26.15;71.14
65396;HTU21D;52004;45.136;39.010;2023-06-14T08:00:59;26.19;71.18
65396;HTU21D;52004;45.136;39.010;2023-06-14T08:03:27;26.27;71.09
65396;HTU21D;52004;45.136;39.010;2023-06-14T08:05:53;26.34;71.11
65396;HTU21D;52004;45.136;39.010;2023-06-14T08:08:19;26.46;71.19
65396;HTU21D;52004;45.136;39.010;2023-06-14T08:10:44;26.58;71.08
65396;HTU21D;52004;45.136;39.010;2023-06-14T08:13:11;26.72;71.12
65396;HTU21D;52004;45.136;39.010;2023-06-14T08:15:36;26.84;70.92
65396;HTU21D;52004;45.136;39.010;2023-06-14T08:18:03;26.93;70.77
65396;HTU21D;52004;45.136;39.010;2023-06-14T08:20:28;26.98;70.62
65396;HTU21D;52004;45.136;39.010;2023-06-14T08:22:57;26.99;70.39
65396;HTU21D;52004;45.136;39.010;2023-06-14T08:25:23;26.99;70.26
65396;HTU21D;52004;45.136;39.010;2023-06-14T08:27:50;26.97;70.12
65396;HTU21D;52004;45.136;39.010;2023-06-14T08:30:16;26.95;70.07
65396;HTU21D;52004;45.136;39.010;2023-06-14T08:32:43;27.00;70.22
65396;HTU21D;52004;45.136;39.010;2023-06-14T08:35:09;27.08;70.16
65396;HTU21D;52004;45.136;39.010;2023-06-14T08:37:39;27.14;70.00
65396;HTU21D;52004;45.136;39.010;2023-06-14T08:40:07;27.15;69.84
65396;HTU21D;52004;45.136;39.010;2023-06-14T08:42:38;27.14;69.65
65396;HTU21D;52004;45.136;39.010;2023-06-14T08:45:04;27.09;69.50
65396;HTU21D;52004;45.136;39.010;2023-06-14T08:47:30;27.04;69.40
65396;HTU21D;52004;45.136;39.010;2023-06-14T08:50:02;26.94;69.29
65396;HTU21D;52004;45.136;39.010;2023-06-14T08:52:31;26.84;69.27
65396;HTU21D;52004;45.136;39.010;2023-06-14T08:54:59;26.81;69.33
65396;HTU21D;52004;45.136;39.010;2023-06-14T08:57:26;26.83;69.47
65396;HTU21D;52004;45.136;39.010;2023-06-14T08:59:56;26.92;69.64
65396;HTU21D;52004;45.136;39.010;2023-06-14T09:02:22;27.05;69.65
65396;HTU21D;52004;45.136;39.010;2023-06-14T09:04:48;27.22;69.79
65396;HTU21D;52004;45.136;39.010;2023-06-14T09:07:15;27.41;69.66
65396;HTU21D;52004;45.136;39.010;2023-06-14T09:09:41;27.56;69.38
65396;HTU21D;52004;45.136;39.010;2023-06-14T09:12:08;27.65;69.23
65396;HTU21D;52004;45.136;39.010;2023-06-14T09:14:36;27.66;68.96
65396;HTU21D;52004;45.136;39.010;2023-06-14T09:17:05;0.00;68.84
65396;HTU21D;52004;45.136;39.010;2023-06-14T09:19:31;27.61;68.69
65396;HTU21D;52004;45.136;39.010;2023-06-14T09:21:57;27.57;68.73
65396;HTU21D;52004;45.136;39.010;2023-06-14T09:24:26;27.57;68.75
65396;HTU21D;52004;45.136;39.010;2023-06-14T09:26:52;27.58;68.75
65396;HTU21D;52004;45.136;39.010;2023-06-14T09:29:18;27.59;68.62
65396;HTU21D;52004;45.136;39.010;2023-06-14T09:31:47;27.56;68.53
65396;HTU21D;52004;45.136;39.010;2023-06-14T09:34:13;27.58;68.58
65396;HTU21D;52004;45.136;39.010;2023-06-14T09:36:40;27.60;68.53
65396;HTU21D;52004;45.136;39.010;2023-06-14T09:39:32;0.00;68.47
65396;HTU21D;52004;45.136;39.010;2023-06-14T09:41:58;0.00;68.46
65396;HTU21D;52004;45.136;39.010;2023-06-14T09:44:25;27.67;68.23
65396;HTU21D;52004;45.136;39.010;2023-06-14T09:46:55;27.65;68.26
65396;HTU21D;52004;45.136;39.010;2023-06-14T09:49:21;27.68;68.23
65396;HTU21D;52004;45.136;39.010;2023-06-14T09:51:49;27.69;68.18
65396;HTU21D;52004;45.136;39.010;2023-06-14T09:54:42;27.69;68.25
65396;HTU21D;52004;45.136;39.010;2023-06-14T09:57:11;27.76;68.26
65396;HTU21D;52004;45.136;39.010;2023-06-14T09:59:40;27.85;68.30
65396;HTU21D;52004;45.136;39.010;2023-06-14T10:02:14;27.95;68.19
65396;HTU21D;52004;45.136;39.010;2023-06-14T10:04:46;27.99;67.98
65396;HTU21D;52004;45.136;39.010;2023-06-14T10:07:19;28.01;68.01
65396;HTU21D;52004;45.136;39.010;2023-06-14T10:09:50;28.10;67.82
65396;HTU21D;52004;45.136;39.010;2023-06-14T10:12:16;28.08;67.54
65396;HTU21D;52004;45.136;39.010;2023-06-14T10:14:48;28.03;67.52
65396;HTU21D;52004;45.136;39.010;2023-06-14T10:18:07;27.99;67.46
65396;HTU21D;52004;45.136;39.010;2023-06-14T10:20:16;27.94;67.37
65396;HTU21D;52004;45.136;39.010;2023-06-14T10:22:50;27.88;67.37
65396;HTU21D;52004;45.136;39.010;2023-06-14T10:25:26;27.87;67.49
65396;HTU21D;52004;45.136;39.010;2023-06-14T10:28:01;27.96;67.65
65396;HTU21D;52004;45.136;39.010;2023-06-14T10:30:27;28.10;67.71
65396;HTU21D;52004;45.136;39.010;2023-06-14T10:33:14;28.26;67.77
65396;HTU21D;52004;45.136;39.010;2023-06-14T10:35:40;28.53;67.88
65396;HTU21D;52004;45.136;39.010;2023-06-14T10:38:08;28.75;67.52
65396;HTU21D;52004;45.136;39.010;2023-06-14T10:40:59;28.88;67.30
65396;HTU21D;52004;45.136;39.010;2023-06-14T10:43:25;28.99;67.11
65396;HTU21D;52004;45.136;39.010;2023-06-14T10:48:39;29.12;66.88
65396;HTU21D;52004;45.136;39.010;2023-06-14T10:51:05;29.18;66.75
65396;HTU21D;52004;45.136;39.010;2023-06-14T10:53:39;0.00;66.69
65396;HTU21D;52004;45.136;39.010;2023-06-14T10:56:06;29.26;66.67
65396;HTU21D;52004;45.136;39.010;2023-06-14T10:58:32;29.37;66.72
65396;HTU21D;52004;45.136;39.010;2023-06-14T11:00:58;29.47;66.46
65396;HTU21D;52004;45.136;39.010;2023-06-14T11:03:43;29.43;66.20
65396;HTU21D;52004;45.136;39.010;2023-06-14T11:06:13;29.38;66.21
65396;HTU21D;52004;45.136;39.010;2023-06-14T11:09:06;29.42;66.33
65396;HTU21D;52004;45.136;39.010;2023-06-14T11:11:28;29.44;66.10
65396;HTU21D;52004;45.136;39.010;2023-06-14T11:13:55;29.39;66.09
65396;HTU21D;52004;45.136;39.010;2023-06-14T11:16:21;29.38;66.07
65396;HTU21D;52004;45.136;39.010;2023-06-14T11:18:52;29.35;65.98
65396;HTU21D;52004;45.136;39.010;2023-06-14T11:21:18;29.28;65.80
65396;HTU21D;52004;45.136;39.010;2023-06-14T11:23:50;29.15;65.76
65396;HTU21D;52004;45.136;39.010;2023-06-14T11:26:27;29.00;65.93
65396;HTU21D;52004;45.136;39.010;2023-06-14T11:28:57;29.00;66.17
65396;HTU21D;52004;45.136;39.010;2023-06-14T11:31:23;29.09;66.15
65396;HTU21D;52004;45.136;39.010;2023-06-14T11:33:50;29.09;65.88
65396;HTU21D;52004;45.136;39.010;2023-06-14T11:36:16;29.08;65.91
65396;HTU21D;52004;45.136;39.010;2023-06-14T11:39:01;29.11;65.81
65396;HTU21D;52004;45.136;39.010;2023-06-14T11:41:46;29.11;65.60
65396;HTU21D;52004;45.136;39.010;2023-06-14T11:44:12;29.03;65.44
65396;HTU21D;52004;45.136;39.010;2023-06-14T11:46:38;28.95;65.46
65396;HTU21D;52004;45.136;39.010;2023-06-14T11:49:04;28.95;65.59
65396;HTU21D;52004;45.136;39.010;2023-06-14T11:51:32;29.02;65.64
65396;HTU21D;52004;45.136;39.010;2023-06-14T11:53:59;29.06;65.58
65396;HTU21D;52004;45.136;39.010;2023-06-14T11:56:25;29.09;65.50
65396;HTU21D;52004;45.136;39.010;2023-06-14T11:58:52;29.12;65.47
65396;HTU21D;52004;45.136;39.010;2023-06-14T12:01:22;29.17;65.48
65396;HTU21D;52004;45.136;39.010;2023-06-14T12:03:48;29.18;65.33
65396;HTU21D;52004;45.136;39.010;2023-06-14T12:06:33;29.18;65.27
65396;HTU21D;52004;45.136;39.010;2023-06-14T12:09:04;29.17;65.28
65396;HTU21D;52004;45.136;39.010;2023-06-14T12:11:33;29.19;65.31
65396;HTU21D;52004;45.136;39.010;2023-06-14T12:17:05;29.26;65.26
65396;HTU21D;52004;45.136;39.010;2023-06-14T12:19:41;29.26;65.17
65396;HTU21D;52004;45.136;39.010;2023-06-14T12:22:07;29.24;65.14
65396;HTU21D;52004;45.136;39.010;2023-06-14T12:24:34;29.27;65.21
65396;HTU21D;52004;45.136;39.010;2023-06-14T12:27:00;29.34;65.32
65396;HTU21D;52004;45.136;39.010;2023-06-14T12:29:28;29.45;65.36
65396;HTU21D;52004;45.136;39.010;2023-06-14T12:31:54;29.56;65.30
65396;HTU21D;52004;45.136;39.010;2023-06-14T12:34:38;29.67;65.17
65396;HTU21D;52004;45.136;39.010;2023-06-14T12:37:04;29.73;65.02
65396;HTU21D;52004;45.136;39.010;2023-06-14T12:39:30;29.77;64.92
65396;HTU21D;52004;45.136;39.010;2023-06-14T12:42:19;29.77;64.74
65396;HTU21D;52004;45.136;39.010;2023-06-14T12:44:44;29.74;64.63
65396;HTU21D;52004;45.136;39.010;2023-06-14T12:47:29;29.68;64.59
65396;HTU21D;52004;45.136;39.010;2023-06-14T12:49:55;29.63;64.56
65396;HTU21D;52004;45.136;39.010;2023-06-14T12:52:21;29.57;64.50
65396;HTU21D;52004;45.136;39.010;2023-06-14T12:54:47;29.50;64.47
65396;HTU21D;52004;45.136;39.010;2023-06-14T12:57:13;29.44;64.37
65396;HTU21D;52004;45.136;39.010;2023-06-14T12:59:39;29.35;64.31
65396;HTU21D;52004;45.136;39.010;2023-06-14T13:04:50;29.17;64.32
65396;HTU21D;52004;45.136;39.010;2023-06-14T13:07:16;29.08;64.27
65396;HTU21D;52004;45.136;39.010;2023-06-14T13:09:42;29.02;64.28
65396;HTU21D;52004;45.136;39.010;2023-06-14T13:12:09;28.97;64.30
65396;HTU21D;52004;45.136;39.010;2023-06-14T13:14:55;28.92;64.37
65396;HTU21D;52004;45.136;39.010;2023-06-14T13:17:21;28.91;64.31
65396;HTU21D;52004;45.136;39.010;2023-06-14T13:19:46;28.86;64.22
65396;HTU21D;52004;45.136;39.010;2023-06-14T13:22:12;28.79;64.13
65396;HTU21D;52004;45.136;39.010;2023-06-14T13:24:38;28.70;64.17
65396;HTU21D;52004;45.136;39.010;2023-06-14T13:27:04;28.62;64.19
65396;HTU21D;52004;45.136;39.010;2023-06-14T13:29:31;28.62;64.36
65396;HTU21D;52004;45.136;39.010;2023-06-14T13:31:58;28.62;64.31
65396;HTU21D;52004;45.136;39.010;2023-06-14T13:34:24;28.59;64.29
65396;HTU21D;52004;45.136;39.010;2023-06-14T13:36:50;28.57;64.34
65396;HTU21D;52004;45.136;39.010;2023-06-14T13:39:16;28.58;64.38
65396;HTU21D;52004;45.136;39.010;2023-06-14T13:42:00;28.60;64.36
65396;HTU21D;52004;45.136;39.010;2023-06-14T13:44:26;28.60;64.25
65396;HTU21D;52004;45.136;39.010;2023-06-14T13:47:10;28.50;64.01
65396;HTU21D;52004;45.136;39.010;2023-06-14T13:49:36;28.37;64.08
65396;HTU21D;52004;45.136;39.010;2023-06-14T13:52:02;28.23;64.14
65396;HTU21D;52004;45.136;39.010;2023-06-14T13:54:28;28.10;64.21
65396;HTU21D;52004;45.136;39.010;2023-06-14T13:56:54;27.98;64.32
65396;HTU21D;52004;45.136;39.010;2023-06-14T13:59:20;27.90;64.37
65396;HTU21D;52004;45.136;39.010;2023-06-14T14:01:47;27.75;64.42
65396;HTU21D;52004;45.136;39.010;2023-06-14T14:04:32;27.64;64.59
65396;HTU21D;52004;45.136;39.010;2023-06-14T14:06:58;27.54;64.59
65396;HTU21D;52004;45.136;39.010;2023-06-14T14:09:24;27.46;64.63
65396;HTU21D;52004;45.136;39.010;2023-06-14T14:11:50;27.38;64.67
65396;HTU21D;52004;45.136;39.010;2023-06-14T14:14:16;27.31;64.76
65396;HTU21D;52004;45.136;39.010;2023-06-14T14:16:42;27.27;64.76
65396;HTU21D;52004;45.136;39.010;2023-06-14T14:21:53;27.19;64.85
65396;HTU21D;52004;45.136;39.010;2023-06-14T14:24:19;27.14;64.89
65396;HTU21D;52004;45.136;39.010;2023-06-14T14:26:45;27.11;64.87
65396;HTU21D;52004;45.136;39.010;2023-06-14T14:29:14;27.07;64.92
65396;HTU21D;52004;45.136;39.010;2023-06-14T14:31:40;27.04;64.94
65396;HTU21D;52004;45.136;39.010;2023-06-14T14:34:06;26.99;64.91
65396;HTU21D;52004;45.136;39.010;2023-06-14T14:36:50;26.91;64.96
65396;HTU21D;52004;45.136;39.010;2023-06-14T14:39:16;26.89;65.10
65396;HTU21D;52004;45.136;39.010;2023-06-14T14:42:08;26.89;65.23
65396;HTU21D;52004;45.136;39.010;2023-06-14T14:44:58;26.91;65.18
65396;HTU21D;52004;45.136;39.010;2023-06-14T14:47:24;26.92;65.22
65396;HTU21D;52004;45.136;39.010;2023-06-14T14:50:15;26.97;65.22
65396;HTU21D;52004;45.136;39.010;2023-06-14T14:52:42;26.99;65.18
65396;HTU21D;52004;45.136;39.010;2023-06-14T14:55:08;27.01;65.19
65396;HTU21D;52004;45.136;39.010;2023-06-14T14:57:34;27.04;65.17
65396;HTU21D;52004;45.136;39.010;2023-06-14T15:00:18;27.07;65.13
65396;HTU21D;52004;45.136;39.010;2023-06-14T15:02:44;27.05;65.08
65396;HTU21D;52004;45.136;39.010;2023-06-14T15:05:10;27.02;65.11
65396;HTU21D;52004;45.136;39.010;2023-06-14T15:07:36;27.00;65.16
65396;HTU21D;52004;45.136;39.010;2023-06-14T15:10:05;27.01;65.21
65396;HTU21D;52004;45.136;39.010;2023-06-14T15:12:31;27.01;65.23
65396;HTU21D;52004;45.136;39.010;2023-06-14T15:14:57;27.02;65.21
65396;HTU21D;52004;45.136;39.010;2023-06-14T15:17:48;27.01;65.24
65396;HTU21D;52004;45.136;39.010;2023-06-14T15:20:13;27.00;65.21
65396;HTU21D;52004;45.136;39.010;2023-06-14T15:22:40;26.99;65.25
65396;HTU21D;52004;45.136;39.010;2023-06-14T15:25:06;26.98;65.24
65396;HTU21D;52004;45.136;39.010;2023-06-14T15:27:32;26.95;65.21
65396;HTU21D;52004;45.136;39.010;2023-06-14T15:29:58;26.95;65.27
65396;HTU21D;52004;45.136;39.010;2023-06-14T15:32:24;26.92;65.27